sensor_id;sensor_type;location;lat;lon;timestamp;pressure;altitude;pressure_sealevel;temperature;humidity
82187;BME280;71776;52.042;8.160;2023-07-30T00:01:20;100135.16;;;17.41;83.11
82187;BME280;71776;52.042;8.160;2023-07-30T00:03:45;100135.16;;;17.41;82.90
82187;BME280;71776;52.042;8.160;2023-07-30T00:06:11;100137.13;;;17.36;82.99
82187;BME280;71776;52.042;8.160;2023-07-30T00:08:36;100134.75;;;17.30;82.94
82187;BME280;71776;52.042;8.160;2023-07-30T00:11:02;100131.16;;;17.33;82.88
82187;BME280;71776;52.042;8.160;2023-07-30T00:13:28;100141.47;;;17.16;83.31
82187;BME280;71776;52.042;8.160;2023-07-30T00:15:53;100139.47;;;17.22;83.39
82187;BME280;71776;52.042;8.160;2023-07-30T00:18:20;100141.28;;;17.20;83.64
82187;BME280;71776;52.042;8.160;2023-07-30T00:20:46;100135.13;;;17.21;83.53
82187;BME280;71776;52.042;8.160;2023-07-30T00:23:11;100142.59;;;17.30;82.92
82187;BME280;71776;52.042;8.160;2023-07-30T00:25:37;100141.16;;;17.23;83.36
82187;BME280;71776;52.042;8.160;2023-07-30T00:28:02;100148.22;;;17.21;83.63
82187;BME280;71776;52.042;8.160;2023-07-30T00:30:28;100143.59;;;17.06;83.98
82187;BME280;71776;52.042;8.160;2023-07-30T00:32:54;100146.19;;;17.06;84.06
82187;BME280;71776;52.042;8.160;2023-07-30T00:35:20;100144.63;;;17.02;84.30
82187;BME280;71776;52.042;8.160;2023-07-30T00:37:46;100150.75;;;17.01;84.45
82187;BME280;71776;52.042;8.160;2023-07-30T00:40:12;100148.66;;;17.11;83.67
82187;BME280;71776;52.042;8.160;2023-07-30T00:42:37;100143.22;;;16.94;83.87
82187;BME280;71776;52.042;8.160;2023-07-30T00:45:03;100150.31;;;16.90;84.06
82187;BME280;71776;52.042;8.160;2023-07-30T00:47:29;100138.97;;;16.91;83.72
82187;BME280;71776;52.042;8.160;2023-07-30T00:49:55;100141.75;;;16.87;83.82
82187;BME280;71776;52.042;8.160;2023-07-30T00:52:23;100148.84;;;16.83;83.62
82187;BME280;71776;52.042;8.160;2023-07-30T00:54:49;100150.47;;;16.87;83.39
82187;BME280;71776;52.042;8.160;2023-07-30T00:57:18;100147.69;;;16.90;83.13
82187;BME280;71776;52.042;8.160;2023-07-30T00:59:44;100147.84;;;16.87;82.67
82187;BME280;71776;52.042;8.160;2023-07-30T01:02:09;100150.56;;;16.84;82.75
82187;BME280;71776;52.042;8.160;2023-07-30T01:04:36;100156.16;;;16.75;82.83
82187;BME280;71776;52.042;8.160;2023-07-30T01:07:01;100158.25;;;16.65;83.15
82187;BME280;71776;52.042;8.160;2023-07-30T01:09:28;100159.28;;;16.61;83.01
82187;BME280;71776;52.042;8.160;2023-07-30T01:11:54;100162.63;;;16.65;82.91
82187;BME280;71776;52.042;8.160;2023-07-30T01:14:21;100162.84;;;16.59;83.10
82187;BME280;71776;52.042;8.160;2023-07-30T01:16:48;100172.19;;;16.66;82.82
82187;BME280;71776;52.042;8.160;2023-07-30T01:19:14;100168.94;;;16.59;83.17
82187;BME280;71776;52.042;8.160;2023-07-30T01:21:41;100168.69;;;16.65;82.78
82187;BME280;71776;52.042;8.160;2023-07-30T01:24:06;100169.22;;;16.52;83.21
82187;BME280;71776;52.042;8.160;2023-07-30T01:26:36;100169.31;;;16.49;83.36
82187;BME280;71776;52.042;8.160;2023-07-30T01:29:07;100176.34;;;16.47;83.53
82187;BME280;71776;52.042;8.160;2023-07-30T01:31:35;100179.56;;;16.55;83.21
82187;BME280;71776;52.042;8.160;2023-07-30T01:34:03;100182.28;;;16.52;83.37
82187;BME280;71776;52.042;8.160;2023-07-30T01:36:29;100190.75;;;16.34;84.11
82187;BME280;71776;52.042;8.160;2023-07-30T01:38:59;100193.28;;;16.37;84.22
82187;BME280;71776;52.042;8.160;2023-07-30T01:41:24;100186.97;;;16.42;83.77
82187;BME280;71776;52.042;8.160;2023-07-30T01:43:50;100188.84;;;16.39;83.65
82187;BME280;71776;52.042;8.160;2023-07-30T01:46:15;100194.50;;;16.27;84.43
82187;BME280;71776;52.042;8.160;2023-07-30T01:48:41;100193.66;;;16.26;84.54
82187;BME280;71776;52.042;8.160;2023-07-30T01:51:07;100199.63;;;16.30;84.41
82187;BME280;71776;52.042;8.160;2023-07-30T01:53:32;100193.34;;;16.35;84.11
82187;BME280;71776;52.042;8.160;2023-07-30T01:56:02;100196.81;;;16.36;83.98
82187;BME280;71776;52.042;8.160;2023-07-30T01:58:28;100194.22;;;16.34;83.60
82187;BME280;71776;52.042;8.160;2023-07-30T02:00:54;100200.38;;;16.33;83.93
82187;BME280;71776;52.042;8.160;2023-07-30T02:03:19;100210.06;;;16.30;83.86
82187;BME280;71776;52.042;8.160;2023-07-30T02:05:45;100206.66;;;16.28;83.76
82187;BME280;71776;52.042;8.160;2023-07-30T02:08:11;100208.47;;;16.26;83.61
82187;BME280;71776;52.042;8.160;2023-07-30T02:10:36;100204.97;;;16.27;83.35
82187;BME280;71776;52.042;8.160;2023-07-30T02:13:03;100206.81;;;16.23;83.44
82187;BME280;71776;52.042;8.160;2023-07-30T02:15:29;100197.31;;;16.21;83.30
82187;BME280;71776;52.042;8.160;2023-07-30T02:17:54;100201.59;;;16.23;83.01
82187;BME280;71776;52.042;8.160;2023-07-30T02:20:20;100209.59;;;16.19;83.18
82187;BME280;71776;52.042;8.160;2023-07-30T02:22:45;100201.09;;;16.12;83.27
82187;BME280;71776;52.042;8.160;2023-07-30T02:25:11;100209.09;;;16.08;83.65
82187;BME280;71776;52.042;8.160;2023-07-30T02:27:36;100202.06;;;16.10;83.12
82187;BME280;71776;52.042;8.160;2023-07-30T02:30:04;100207.28;;;16.10;83.26
82187;BME280;71776;52.042;8.160;2023-07-30T02:32:30;100205.53;;;16.10;83.16
82187;BME280;71776;52.042;8.160;2023-07-30T02:34:55;100205.63;;;16.07;83.02
82187;BME280;71776;52.042;8.160;2023-07-30T02:37:21;100202.50;;;15.97;82.93
82187;BME280;71776;52.042;8.160;2023-07-30T02:39:47;100206.63;;;15.78;84.01
82187;BME280;71776;52.042;8.160;2023-07-30T02:42:12;100205.56;;;15.84;84.17
82187;BME280;71776;52.042;8.160;2023-07-30T02:44:38;100207.41;;;15.80;83.84
82187;BME280;71776;52.042;8.160;2023-07-30T02:47:05;100202.91;;;15.85;83.84
82187;BME280;71776;52.042;8.160;2023-07-30T02:49:30;100213.34;;;15.85;83.66
82187;BME280;71776;52.042;8.160;2023-07-30T02:51:56;100197.59;;;15.88;84.01
82187;BME280;71776;52.042;8.160;2023-07-30T02:54:21;100197.75;;;15.84;84.44
82187;BME280;71776;52.042;8.160;2023-07-30T02:56:47;100209.22;;;15.78;84.71
82187;BME280;71776;52.042;8.160;2023-07-30T02:59:13;100210.16;;;15.77;84.47
82187;BME280;71776;52.042;8.160;2023-07-30T03:01:38;100216.97;;;15.81;84.52
82187;BME280;71776;52.042;8.160;2023-07-30T03:04:05;100217.13;;;15.77;84.57
82187;BME280;71776;52.042;8.160;2023-07-30T03:06:30;100218.00;;;15.76;84.42
82187;BME280;71776;52.042;8.160;2023-07-30T03:08:56;100216.25;;;15.76;84.27
82187;BME280;71776;52.042;8.160;2023-07-30T03:11:22;100218.84;;;15.78;83.74
82187;BME280;71776;52.042;8.160;2023-07-30T03:13:47;100218.84;;;15.78;83.38
82187;BME280;71776;52.042;8.160;2023-07-30T03:16:13;100219.44;;;15.86;82.97
82187;BME280;71776;52.042;8.160;2023-07-30T03:18:38;100224.91;;;15.78;83.08
82187;BME280;71776;52.042;8.160;2023-07-30T03:21:05;100222.59;;;15.69;82.99
82187;BME280;71776;52.042;8.160;2023-07-30T03:23:31;100227.50;;;15.78;82.45
82187;BME280;71776;52.042;8.160;2023-07-30T03:25:57;100226.81;;;15.73;82.06
82187;BME280;71776;52.042;8.160;2023-07-30T03:28:23;100228.59;;;15.71;81.74
82187;BME280;71776;52.042;8.160;2023-07-30T03:30:48;100231.41;;;15.65;81.65
82187;BME280;71776;52.042;8.160;2023-07-30T03:33:14;100228.97;;;15.61;82.04
82187;BME280;71776;52.042;8.160;2023-07-30T03:35:39;100227.00;;;15.67;81.33
82187;BME280;71776;52.042;8.160;2023-07-30T03:38:06;100235.03;;;15.61;81.10
82187;BME280;71776;52.042;8.160;2023-07-30T03:40:32;100228.16;;;15.59;81.49
82187;BME280;71776;52.042;8.160;2023-07-30T03:42:57;100231.84;;;15.53;81.19
82187;BME280;71776;52.042;8.160;2023-07-30T03:45:23;100229.22;;;15.53;81.49
82187;BME280;71776;52.042;8.160;2023-07-30T03:47:49;100224.97;;;15.49;80.94
82187;BME280;71776;52.042;8.160;2023-07-30T03:50:14;100232.94;;;15.45;81.32
82187;BME280;71776;52.042;8.160;2023-07-30T03:52:40;100236.00;;;15.59;80.32
82187;BME280;71776;52.042;8.160;2023-07-30T03:55:07;100233.16;;;15.66;79.85
82187;BME280;71776;52.042;8.160;2023-07-30T03:57:33;100225.53;;;15.59;79.79
82187;BME280;71776;52.042;8.160;2023-07-30T03:59:59;100230.09;;;15.52;79.96
82187;BME280;71776;52.042;8.160;2023-07-30T04:02:25;100231.69;;;15.58;79.74
82187;BME280;71776;52.042;8.160;2023-07-30T04:04:50;100236.22;;;15.51;79.64
82187;BME280;71776;52.042;8.160;2023-07-30T04:07:16;100232.56;;;15.57;79.44
82187;BME280;71776;52.042;8.160;2023-07-30T04:09:41;100235.31;;;15.52;79.29
82187;BME280;71776;52.042;8.160;2023-07-30T04:12:08;100232.56;;;15.57;79.15
82187;BME280;71776;52.042;8.160;2023-07-30T04:14:34;100234.19;;;15.61;78.91
82187;BME280;71776;52.042;8.160;2023-07-30T04:16:59;100242.00;;;15.61;78.42
82187;BME280;71776;52.042;8.160;2023-07-30T04:19:25;100240.69;;;15.75;78.28
82187;BME280;71776;52.042;8.160;2023-07-30T04:21:51;100236.91;;;15.84;77.39
82187;BME280;71776;52.042;8.160;2023-07-30T04:24:16;100242.13;;;15.84;77.51
82187;BME280;71776;52.042;8.160;2023-07-30T04:26:42;100233.28;;;15.88;76.78
82187;BME280;71776;52.042;8.160;2023-07-30T04:29:08;100241.13;;;15.88;77.02
82187;BME280;71776;52.042;8.160;2023-07-30T04:31:34;100237.63;;;15.89;76.69
82187;BME280;71776;52.042;8.160;2023-07-30T04:33:59;100244.38;;;15.94;76.20
82187;BME280;71776;52.042;8.160;2023-07-30T04:36:25;100238.84;;;16.03;75.88
82187;BME280;71776;52.042;8.160;2023-07-30T04:38:51;100234.22;;;16.12;75.55
82187;BME280;71776;52.042;8.160;2023-07-30T04:41:16;100237.22;;;16.26;74.99
82187;BME280;71776;52.042;8.160;2023-07-30T04:43:41;100233.03;;;16.46;74.15
82187;BME280;71776;52.042;8.160;2023-07-30T04:46:08;100231.75;;;16.58;73.32
82187;BME280;71776;52.042;8.160;2023-07-30T04:48:34;100233.44;;;16.59;73.78
82187;BME280;71776;52.042;8.160;2023-07-30T04:50:59;100233.53;;;16.81;72.58
82187;BME280;71776;52.042;8.160;2023-07-30T04:53:25;100239.22;;;16.68;73.17
82187;BME280;71776;52.042;8.160;2023-07-30T04:55:54;100242.22;;;16.81;72.79
82187;BME280;71776;52.042;8.160;2023-07-30T04:58:20;100233.63;;;17.24;71.44
82187;BME280;71776;52.042;8.160;2023-07-30T05:00:45;100241.81;;;17.38;70.69
82187;BME280;71776;52.042;8.160;2023-07-30T05:03:12;100237.81;;;17.51;70.23
82187;BME280;71776;52.042;8.160;2023-07-30T05:05:38;100233.44;;;17.52;70.46
82187;BME280;71776;52.042;8.160;2023-07-30T05:08:03;100238.88;;;17.45;70.34
82187;BME280;71776;52.042;8.160;2023-07-30T05:10:29;100234.50;;;17.68;70.04
82187;BME280;71776;52.042;8.160;2023-07-30T05:12:54;100233.13;;;17.81;69.57
82187;BME280;71776;52.042;8.160;2023-07-30T05:15:20;100233.53;;;17.70;69.67
82187;BME280;71776;52.042;8.160;2023-07-30T05:17:46;100236.56;;;18.03;68.86
82187;BME280;71776;52.042;8.160;2023-07-30T05:20:13;100234.53;;;18.09;68.19
82187;BME280;71776;52.042;8.160;2023-07-30T05:22:38;100233.88;;;18.04;67.98
82187;BME280;71776;52.042;8.160;2023-07-30T05:25:04;100236.81;;;18.37;66.79
82187;BME280;71776;52.042;8.160;2023-07-30T05:27:30;100229.34;;;19.26;63.95
82187;BME280;71776;52.042;8.160;2023-07-30T05:29:56;100224.13;;;20.97;58.57
82187;BME280;71776;52.042;8.160;2023-07-30T05:32:21;100222.84;;;22.27;55.73
82187;BME280;71776;52.042;8.160;2023-07-30T05:34:47;100220.38;;;22.82;53.74
82187;BME280;71776;52.042;8.160;2023-07-30T05:37:14;100223.84;;;22.69;53.42
82187;BME280;71776;52.042;8.160;2023-07-30T05:39:39;100227.59;;;23.21;52.18
82187;BME280;71776;52.042;8.160;2023-07-30T05:42:05;100220.16;;;24.08;50.28
82187;BME280;71776;52.042;8.160;2023-07-30T05:44:30;100230.38;;;24.00;50.53
82187;BME280;71776;52.042;8.160;2023-07-30T05:46:56;100226.59;;;22.67;53.58
82187;BME280;71776;52.042;8.160;2023-07-30T05:49:21;100227.59;;;23.35;51.59
82187;BME280;71776;52.042;8.160;2023-07-30T05:51:47;100229.44;;;22.78;53.18
82187;BME280;71776;52.042;8.160;2023-07-30T05:54:13;100235.47;;;21.61;55.86
82187;BME280;71776;52.042;8.160;2023-07-30T05:56:39;100236.94;;;21.51;56.51
82187;BME280;71776;52.042;8.160;2023-07-30T05:59:05;100238.38;;;20.77;58.38
82187;BME280;71776;52.042;8.160;2023-07-30T06:01:30;100249.09;;;20.06;60.81
82187;BME280;71776;52.042;8.160;2023-07-30T06:03:56;100257.44;;;19.24;63.32
82187;BME280;71776;52.042;8.160;2023-07-30T06:06:21;100253.44;;;18.97;65.09
82187;BME280;71776;52.042;8.160;2023-07-30T06:08:47;100259.94;;;19.08;64.47
82187;BME280;71776;52.042;8.160;2023-07-30T06:11:14;100259.66;;;18.75;65.36
82187;BME280;71776;52.042;8.160;2023-07-30T06:13:39;100257.59;;;18.63;65.71
82187;BME280;71776;52.042;8.160;2023-07-30T06:16:05;100256.31;;;18.90;65.45
82187;BME280;71776;52.042;8.160;2023-07-30T06:18:30;100257.44;;;19.61;63.55
82187;BME280;71776;52.042;8.160;2023-07-30T06:20:56;100262.38;;;19.67;63.38
82187;BME280;71776;52.042;8.160;2023-07-30T06:23:21;100260.28;;;19.38;63.99
82187;BME280;71776;52.042;8.160;2023-07-30T06:25:47;100257.56;;;19.21;64.53
82187;BME280;71776;52.042;8.160;2023-07-30T06:28:13;100252.19;;;19.05;65.14
82187;BME280;71776;52.042;8.160;2023-07-30T06:30:39;100262.41;;;18.92;65.74
82187;BME280;71776;52.042;8.160;2023-07-30T06:33:04;100270.63;;;18.65;65.97
82187;BME280;71776;52.042;8.160;2023-07-30T06:35:30;100261.38;;;18.56;66.13
82187;BME280;71776;52.042;8.160;2023-07-30T06:37:55;100257.47;;;18.85;65.58
82187;BME280;71776;52.042;8.160;2023-07-30T06:40:21;100280.13;;;18.67;65.88
82187;BME280;71776;52.042;8.160;2023-07-30T06:42:46;100282.19;;;18.39;66.23
82187;BME280;71776;52.042;8.160;2023-07-30T06:45:13;100280.84;;;18.51;66.61
82187;BME280;71776;52.042;8.160;2023-07-30T06:47:39;100273.97;;;18.48;66.46
82187;BME280;71776;52.042;8.160;2023-07-30T06:50:05;100279.41;;;18.64;65.84
82187;BME280;71776;52.042;8.160;2023-07-30T06:52:30;100273.53;;;18.77;65.95
82187;BME280;71776;52.042;8.160;2023-07-30T06:54:56;100289.06;;;18.83;65.61
82187;BME280;71776;52.042;8.160;2023-07-30T06:57:22;100291.25;;;18.32;67.27
82187;BME280;71776;52.042;8.160;2023-07-30T06:59:47;100293.13;;;18.08;68.55
82187;BME280;71776;52.042;8.160;2023-07-30T07:02:14;100299.50;;;18.01;68.75
82187;BME280;71776;52.042;8.160;2023-07-30T07:04:40;100294.22;;;18.03;68.39
82187;BME280;71776;52.042;8.160;2023-07-30T07:07:05;100301.16;;;18.04;68.83
82187;BME280;71776;52.042;8.160;2023-07-30T07:09:31;100301.47;;;18.18;67.91
82187;BME280;71776;52.042;8.160;2023-07-30T07:11:57;100306.47;;;18.02;68.17
82187;BME280;71776;52.042;8.160;2023-07-30T07:14:22;100311.00;;;18.19;68.17
82187;BME280;71776;52.042;8.160;2023-07-30T07:16:48;100305.50;;;18.05;68.56
82187;BME280;71776;52.042;8.160;2023-07-30T07:19:15;100308.00;;;18.28;67.83
82187;BME280;71776;52.042;8.160;2023-07-30T07:21:40;100305.19;;;17.91;69.04
82187;BME280;71776;52.042;8.160;2023-07-30T07:24:06;100305.03;;;17.74;69.51
82187;BME280;71776;52.042;8.160;2023-07-30T07:26:31;100302.44;;;17.51;71.04
82187;BME280;71776;52.042;8.160;2023-07-30T07:28:57;100304.09;;;17.53;70.82
82187;BME280;71776;52.042;8.160;2023-07-30T07:31:22;100308.44;;;17.76;70.71
82187;BME280;71776;52.042;8.160;2023-07-30T07:33:48;100313.31;;;17.85;70.50
82187;BME280;71776;52.042;8.160;2023-07-30T07:36:15;100304.13;;;17.96;69.22
82187;BME280;71776;52.042;8.160;2023-07-30T07:38:40;100305.81;;;17.76;69.97
82187;BME280;71776;52.042;8.160;2023-07-30T07:41:06;100304.47;;;17.87;69.71
82187;BME280;71776;52.042;8.160;2023-07-30T07:43:31;100305.50;;;17.83;69.93
82187;BME280;71776;52.042;8.160;2023-07-30T07:45:57;100306.28;;;18.07;69.72
82187;BME280;71776;52.042;8.160;2023-07-30T07:48:22;100302.66;;;18.31;68.61
82187;BME280;71776;52.042;8.160;2023-07-30T07:50:48;100302.38;;;18.37;68.46
82187;BME280;71776;52.042;8.160;2023-07-30T07:53:15;100305.19;;;18.54;68.20
82187;BME280;71776;52.042;8.160;2023-07-30T07:55:40;100313.31;;;18.48;68.20
82187;BME280;71776;52.042;8.160;2023-07-30T07:58:06;100311.91;;;18.40;68.75
82187;BME280;71776;52.042;8.160;2023-07-30T08:00:31;100314.47;;;18.41;68.49
82187;BME280;71776;52.042;8.160;2023-07-30T08:02:57;100318.38;;;18.31;68.84
82187;BME280;71776;52.042;8.160;2023-07-30T08:05:23;100316.25;;;18.19;69.28
82187;BME280;71776;52.042;8.160;2023-07-30T08:07:48;100319.16;;;18.33;68.36
82187;BME280;71776;52.042;8.160;2023-07-30T08:10:15;100316.94;;;18.24;69.10
82187;BME280;71776;52.042;8.160;2023-07-30T08:12:41;100320.19;;;18.09;69.39
82187;BME280;71776;52.042;8.160;2023-07-30T08:15:07;100319.94;;;18.15;69.70
82187;BME280;71776;52.042;8.160;2023-07-30T08:17:33;100309.44;;;18.15;69.69
82187;BME280;71776;52.042;8.160;2023-07-30T08:19:58;100322.66;;;17.92;70.20
82187;BME280;71776;52.042;8.160;2023-07-30T08:22:24;100320.22;;;17.87;71.10
82187;BME280;71776;52.042;8.160;2023-07-30T08:24:49;100311.31;;;17.91;70.42
82187;BME280;71776;52.042;8.160;2023-07-30T08:27:16;100309.66;;;17.89;71.24
82187;BME280;71776;52.042;8.160;2023-07-30T08:29:41;100316.41;;;17.73;71.50
82187;BME280;71776;52.042;8.160;2023-07-30T08:32:07;100317.88;;;17.80;71.38
82187;BME280;71776;52.042;8.160;2023-07-30T08:34:33;100311.56;;;17.85;71.71
82187;BME280;71776;52.042;8.160;2023-07-30T08:36:58;100315.88;;;17.86;71.49
82187;BME280;71776;52.042;8.160;2023-07-30T08:39:24;100311.94;;;18.18;70.50
82187;BME280;71776;52.042;8.160;2023-07-30T08:41:49;100309.50;;;18.55;69.14
82187;BME280;71776;52.042;8.160;2023-07-30T08:44:16;100314.75;;;18.55;68.79
82187;BME280;71776;52.042;8.160;2023-07-30T08:46:42;100311.94;;;18.80;68.52
82187;BME280;71776;52.042;8.160;2023-07-30T08:49:07;100313.44;;;19.06;67.41
82187;BME280;71776;52.042;8.160;2023-07-30T08:51:35;100311.00;;;19.01;67.63
82187;BME280;71776;52.042;8.160;2023-07-30T08:54:01;100312.06;;;19.16;67.10
82187;BME280;71776;52.042;8.160;2023-07-30T08:56:27;100316.97;;;19.43;66.02
82187;BME280;71776;52.042;8.160;2023-07-30T08:58:54;100311.06;;;19.38;66.86
82187;BME280;71776;52.042;8.160;2023-07-30T09:01:24;100307.75;;;19.89;64.86
82187;BME280;71776;52.042;8.160;2023-07-30T09:03:52;100310.53;;;19.86;64.49
82187;BME280;71776;52.042;8.160;2023-07-30T09:06:18;100316.16;;;19.60;65.66
82187;BME280;71776;52.042;8.160;2023-07-30T09:08:43;100309.81;;;19.83;64.80
82187;BME280;71776;52.042;8.160;2023-07-30T09:11:10;100313.38;;;19.82;64.54
82187;BME280;71776;52.042;8.160;2023-07-30T09:13:37;100311.91;;;19.93;64.69
82187;BME280;71776;52.042;8.160;2023-07-30T09:16:08;100309.00;;;19.45;65.16
82187;BME280;71776;52.042;8.160;2023-07-30T09:18:38;100316.13;;;19.23;65.68
82187;BME280;71776;52.042;8.160;2023-07-30T09:21:04;100324.28;;;19.17;66.15
82187;BME280;71776;52.042;8.160;2023-07-30T09:23:30;100326.56;;;19.06;66.67
82187;BME280;71776;52.042;8.160;2023-07-30T09:25:57;100332.63;;;19.06;66.76
82187;BME280;71776;52.042;8.160;2023-07-30T09:28:30;100332.59;;;19.26;66.68
82187;BME280;71776;52.042;8.160;2023-07-30T09:31:00;100340.75;;;19.20;66.89
82187;BME280;71776;52.042;8.160;2023-07-30T09:33:25;100349.00;;;19.31;66.15
82187;BME280;71776;52.042;8.160;2023-07-30T09:35:52;100331.59;;;19.68;65.17
82187;BME280;71776;52.042;8.160;2023-07-30T09:38:18;100332.50;;;19.67;65.44
82187;BME280;71776;52.042;8.160;2023-07-30T09:40:43;100340.16;;;19.71;64.90
82187;BME280;71776;52.042;8.160;2023-07-30T09:43:09;100344.44;;;19.36;65.91
82187;BME280;71776;52.042;8.160;2023-07-30T09:45:35;100348.09;;;19.32;66.04
82187;BME280;71776;52.042;8.160;2023-07-30T09:48:03;100351.72;;;19.48;65.86
82187;BME280;71776;52.042;8.160;2023-07-30T09:50:29;100342.44;;;19.79;64.13
82187;BME280;71776;52.042;8.160;2023-07-30T09:52:56;100350.69;;;20.07;63.10
82187;BME280;71776;52.042;8.160;2023-07-30T09:55:23;100348.78;;;20.10;62.80
82187;BME280;71776;52.042;8.160;2023-07-30T09:57:48;100354.66;;;20.15;62.99
82187;BME280;71776;52.042;8.160;2023-07-30T10:00:14;100356.78;;;19.90;64.56
82187;BME280;71776;52.042;8.160;2023-07-30T10:02:45;100355.28;;;20.39;62.49
82187;BME280;71776;52.042;8.160;2023-07-30T10:05:14;100355.66;;;21.17;60.26
82187;BME280;71776;52.042;8.160;2023-07-30T10:07:44;100355.50;;;21.20;60.31
82187;BME280;71776;52.042;8.160;2023-07-30T10:10:12;100350.53;;;21.14;60.37
82187;BME280;71776;52.042;8.160;2023-07-30T10:12:38;100341.00;;;21.44;60.20
82187;BME280;71776;52.042;8.160;2023-07-30T10:15:06;100351.56;;;21.75;59.01
82187;BME280;71776;52.042;8.160;2023-07-30T10:17:32;100343.59;;;22.08;57.24
82187;BME280;71776;52.042;8.160;2023-07-30T10:20:17;100356.38;;;22.00;57.88
82187;BME280;71776;52.042;8.160;2023-07-30T10:22:45;100346.06;;;22.41;56.92
82187;BME280;71776;52.042;8.160;2023-07-30T10:25:13;100336.44;;;22.10;57.47
82187;BME280;71776;52.042;8.160;2023-07-30T10:27:41;100349.44;;;21.66;57.73
82187;BME280;71776;52.042;8.160;2023-07-30T10:30:11;100333.19;;;22.05;57.63
82187;BME280;71776;52.042;8.160;2023-07-30T10:32:38;100334.28;;;22.17;56.45
82187;BME280;71776;52.042;8.160;2023-07-30T10:35:04;100335.34;;;22.44;56.42
82187;BME280;71776;52.042;8.160;2023-07-30T10:37:29;100341.94;;;22.67;56.74
82187;BME280;71776;52.042;8.160;2023-07-30T10:39:55;100331.41;;;22.81;54.78
82187;BME280;71776;52.042;8.160;2023-07-30T10:42:22;100333.44;;;22.01;56.88
82187;BME280;71776;52.042;8.160;2023-07-30T10:44:49;100325.81;;;22.12;56.45
82187;BME280;71776;52.042;8.160;2023-07-30T10:47:15;100329.78;;;22.19;56.32
82187;BME280;71776;52.042;8.160;2023-07-30T10:49:41;100320.34;;;22.60;54.57
82187;BME280;71776;52.042;8.160;2023-07-30T10:52:07;100325.47;;;22.32;55.82
82187;BME280;71776;52.042;8.160;2023-07-30T10:54:33;100323.84;;;22.75;54.52
82187;BME280;71776;52.042;8.160;2023-07-30T10:56:59;100310.09;;;22.54;54.35
82187;BME280;71776;52.042;8.160;2023-07-30T10:59:26;100323.63;;;22.34;53.92
82187;BME280;71776;52.042;8.160;2023-07-30T11:01:58;100317.69;;;22.60;53.59
82187;BME280;71776;52.042;8.160;2023-07-30T11:04:23;100317.44;;;22.49;54.55
82187;BME280;71776;52.042;8.160;2023-07-30T11:06:50;100320.34;;;22.60;55.28
82187;BME280;71776;52.042;8.160;2023-07-30T11:09:19;100305.19;;;23.20;52.70
82187;BME280;71776;52.042;8.160;2023-07-30T11:11:44;100302.63;;;22.90;52.62
82187;BME280;71776;52.042;8.160;2023-07-30T11:14:14;100319.72;;;23.27;48.61
82187;BME280;71776;52.042;8.160;2023-07-30T11:16:48;100312.16;;;22.93;50.86
82187;BME280;71776;52.042;8.160;2023-07-30T11:19:14;100322.63;;;22.50;50.40
82187;BME280;71776;52.042;8.160;2023-07-30T11:21:44;100309.16;;;22.25;51.24
82187;BME280;71776;52.042;8.160;2023-07-30T11:24:10;100302.31;;;22.37;51.42
82187;BME280;71776;52.042;8.160;2023-07-30T11:26:35;100306.03;;;22.78;49.76
82187;BME280;71776;52.042;8.160;2023-07-30T11:29:13;100304.16;;;23.23;49.46
82187;BME280;71776;52.042;8.160;2023-07-30T11:31:39;100298.56;;;23.27;49.34
82187;BME280;71776;52.042;8.160;2023-07-30T11:34:06;100301.31;;;23.11;49.32
82187;BME280;71776;52.042;8.160;2023-07-30T11:36:32;100300.94;;;23.03;49.11
82187;BME280;71776;52.042;8.160;2023-07-30T11:38:58;100305.09;;;22.49;49.90
82187;BME280;71776;52.042;8.160;2023-07-30T11:41:23;100305.84;;;22.22;50.87
82187;BME280;71776;52.042;8.160;2023-07-30T11:43:50;100313.97;;;22.03;51.86
82187;BME280;71776;52.042;8.160;2023-07-30T11:46:17;100322.41;;;21.94;50.95
82187;BME280;71776;52.042;8.160;2023-07-30T11:48:43;100325.38;;;21.72;53.06
82187;BME280;71776;52.042;8.160;2023-07-30T11:51:21;100324.44;;;22.05;52.04
82187;BME280;71776;52.042;8.160;2023-07-30T11:53:48;100307.06;;;22.01;51.15
82187;BME280;71776;52.042;8.160;2023-07-30T11:56:18;100315.16;;;22.43;50.22
82187;BME280;71776;52.042;8.160;2023-07-30T11:58:44;100330.44;;;22.52;50.59
82187;BME280;71776;52.042;8.160;2023-07-30T12:01:09;100318.53;;;22.61;50.37
82187;BME280;71776;52.042;8.160;2023-07-30T12:03:35;100316.41;;;22.95;49.79
82187;BME280;71776;52.042;8.160;2023-07-30T12:06:04;100326.34;;;22.92;49.40
82187;BME280;71776;52.042;8.160;2023-07-30T12:08:33;100329.81;;;22.78;51.46
82187;BME280;71776;52.042;8.160;2023-07-30T12:11:02;100328.56;;;22.84;51.19
82187;BME280;71776;52.042;8.160;2023-07-30T12:13:28;100315.50;;;23.39;48.25
82187;BME280;71776;52.042;8.160;2023-07-30T12:15:54;100318.81;;;23.83;47.81
82187;BME280;71776;52.042;8.160;2023-07-30T12:18:21;100322.06;;;23.74;48.82
82187;BME280;71776;52.042;8.160;2023-07-30T12:20:47;100322.91;;;24.01;46.88
82187;BME280;71776;52.042;8.160;2023-07-30T12:23:12;100316.19;;;24.10;46.43
82187;BME280;71776;52.042;8.160;2023-07-30T12:25:39;100321.53;;;24.22;46.56
82187;BME280;71776;52.042;8.160;2023-07-30T12:28:05;100321.88;;;24.30;45.56
82187;BME280;71776;52.042;8.160;2023-07-30T12:30:31;100331.78;;;24.00;47.65
82187;BME280;71776;52.042;8.160;2023-07-30T12:32:56;100317.50;;;24.03;46.18
82187;BME280;71776;52.042;8.160;2023-07-30T12:35:22;100325.22;;;23.52;47.17
82187;BME280;71776;52.042;8.160;2023-07-30T12:37:48;100329.72;;;23.50;47.41
82187;BME280;71776;52.042;8.160;2023-07-30T12:40:14;100312.94;;;23.37;47.93
82187;BME280;71776;52.042;8.160;2023-07-30T12:42:41;100319.94;;;23.52;47.28
82187;BME280;71776;52.042;8.160;2023-07-30T12:45:07;100328.81;;;23.23;48.60